createdAt,value
2023-01-29T00:01:43.901Z,12.77
2023-01-29T00:04:47.586Z,13.60
2023-01-29T00:07:58.509Z,13.02
2023-01-29T00:11:03.762Z,13.73
2023-01-29T00:14:07.254Z,12.85
2023-01-29T00:17:10.867Z,13.38
2023-01-29T00:20:15.663Z,12.30
2023-01-29T00:23:19.335Z,12.90
2023-01-29T00:26:22.814Z,12.63
2023-01-29T00:29:26.735Z,13.07
2023-01-29T00:32:31.096Z,13.20
2023-01-29T00:35:35.108Z,12.83
2023-01-29T00:38:40.123Z,12.10
2023-01-29T00:42:02.830Z,12.50
2023-01-29T00:45:07.677Z,13.93
2023-01-29T00:48:10.395Z,13.25
2023-01-29T00:51:13.332Z,12.70
2023-01-29T00:54:16.118Z,12.70
2023-01-29T00:57:18.820Z,12.45
2023-01-29T01:00:21.857Z,13.65
2023-01-29T01:03:24.878Z,12.80
2023-01-29T01:06:31.881Z,13.30
2023-01-29T01:10:01.249Z,12.60
2023-01-29T01:13:07.197Z,12.68
2023-01-29T01:16:16.249Z,13.35
2023-01-29T01:19:21.681Z,11.73
2023-01-29T01:22:25.764Z,12.63
2023-01-29T01:25:29.215Z,13.68
2023-01-29T01:28:40.768Z,13.23
2023-01-29T01:31:46.374Z,14.17
2023-01-29T01:34:49.211Z,12.60
2023-01-29T01:37:53.121Z,13.60
2023-01-29T01:40:55.954Z,13.43
2023-01-29T01:44:06.388Z,13.15
2023-01-29T01:47:08.913Z,13.77
2023-01-29T01:50:18.819Z,12.32
2023-01-29T01:53:39.568Z,12.30
2023-01-29T01:56:50.369Z,13.32
2023-01-29T02:00:10.281Z,12.73
2023-01-29T02:03:40.098Z,12.55
2023-01-29T02:07:06.244Z,14.05
2023-01-29T02:10:14.034Z,12.37
2023-01-29T02:13:19.463Z,13.40
2023-01-29T02:16:23.157Z,13.23
2023-01-29T02:19:38.214Z,13.23
2023-01-29T02:23:18.671Z,13.38
2023-01-29T02:26:24.801Z,12.02
2023-01-29T02:29:35.339Z,12.83
2023-01-29T02:32:55.255Z,13.25
2023-01-29T02:36:19.740Z,11.95
2023-01-29T02:39:36.982Z,12.40
2023-01-29T02:43:18.197Z,11.77
2023-01-29T02:46:43.785Z,12.23
2023-01-29T02:50:02.237Z,11.50
2023-01-29T02:53:13.055Z,11.40
2023-01-29T02:56:22.359Z,12.25
2023-01-29T02:59:34.321Z,11.50
2023-01-29T03:02:49.151Z,12.98
2023-01-29T03:06:24.583Z,11.38
2023-01-29T03:09:36.343Z,11.73
2023-01-29T03:12:41.677Z,11.38
2023-01-29T03:15:51.366Z,11.35
2023-01-29T03:19:03.388Z,11.00
2023-01-29T03:22:09.004Z,11.55
2023-01-29T03:25:34.341Z,10.70
2023-01-29T03:29:00.259Z,10.30
2023-01-29T03:32:09.435Z,11.18
2023-01-29T03:35:21.119Z,10.87
2023-01-29T03:38:31.717Z,10.57
2023-01-29T03:42:08.392Z,10.23
2023-01-29T03:45:31.543Z,10.80
2023-01-29T03:48:56.114Z,10.70
2023-01-29T03:52:09.073Z,10.27
2023-01-29T03:55:15.993Z,10.73
2023-01-29T03:58:36.861Z,9.77
2023-01-29T04:01:54.072Z,10.38
2023-01-29T04:05:05.325Z,10.68
2023-01-29T04:08:17.843Z,10.40
2023-01-29T04:11:23.954Z,10.18
2023-01-29T04:14:27.110Z,9.52
2023-01-29T04:17:36.863Z,10.43
2023-01-29T04:20:40.425Z,9.40
2023-01-29T04:23:43.880Z,9.18
2023-01-29T04:27:06.871Z,9.32
2023-01-29T04:30:22.151Z,9.00
2023-01-29T04:33:53.267Z,9.35
2023-01-29T04:37:15.285Z,9.90
2023-01-29T04:40:29.043Z,9.32
2023-01-29T04:43:44.410Z,9.43
2023-01-29T04:47:03.606Z,8.63
2023-01-29T04:50:22.220Z,8.68
2023-01-29T04:53:52.677Z,7.55
2023-01-29T04:57:09.248Z,7.78
2023-01-29T05:00:27.279Z,7.20
2023-01-29T05:03:32.905Z,8.27
2023-01-29T05:06:37.017Z,8.43
2023-01-29T05:09:44.237Z,7.65
2023-01-29T05:12:51.710Z,8.13
2023-01-29T05:16:01.805Z,8.38
2023-01-29T05:19:04.857Z,7.20
2023-01-29T05:22:16.351Z,8.13
2023-01-29T05:25:27.319Z,8.35
2023-01-29T05:28:34.622Z,8.30
2023-01-29T05:31:37.611Z,7.70
2023-01-29T05:34:40.977Z,7.87
2023-01-29T05:37:43.892Z,7.47
2023-01-29T05:41:08.381Z,7.27
2023-01-29T05:44:18.066Z,8.18
2023-01-29T05:47:23.395Z,8.60
2023-01-29T05:50:28.692Z,7.40
2023-01-29T05:53:34.331Z,8.10
2023-01-29T05:56:44.505Z,8.67
2023-01-29T05:59:48.711Z,8.10
2023-01-29T06:02:53.766Z,8.95
2023-01-29T06:05:57.013Z,8.00
2023-01-29T06:09:01.686Z,8.48
2023-01-29T06:12:07.963Z,7.10
2023-01-29T06:15:11.425Z,8.88
2023-01-29T06:18:16.052Z,7.97
2023-01-29T06:21:20.326Z,8.80
2023-01-29T06:24:26.345Z,7.97
2023-01-29T06:27:31.821Z,8.73
2023-01-29T06:30:45.386Z,8.45
2023-01-29T06:33:58.749Z,8.40
2023-01-29T06:37:02.139Z,8.05
2023-01-29T06:40:07.641Z,7.80
2023-01-29T06:43:13.585Z,7.37
2023-01-29T06:46:17.460Z,8.10
2023-01-29T06:49:25.183Z,8.25
2023-01-29T06:52:37.267Z,7.12
2023-01-29T06:55:42.656Z,7.87
2023-01-29T06:58:55.264Z,7.57
2023-01-29T07:02:01.275Z,7.90
2023-01-29T07:05:06.428Z,7.95
2023-01-29T07:08:10.379Z,7.93
2023-01-29T07:11:13.722Z,6.97
2023-01-29T07:14:18.232Z,8.02
2023-01-29T07:17:22.157Z,8.05
2023-01-29T07:20:30.207Z,7.20
2023-01-29T07:23:35.639Z,7.53
2023-01-29T07:26:40.535Z,8.52
2023-01-29T07:29:50.207Z,7.10
2023-01-29T07:32:53.871Z,7.10
2023-01-29T07:35:58.742Z,7.57
2023-01-29T07:39:04.441Z,7.50
2023-01-29T07:42:10.487Z,7.05
2023-01-29T07:45:14.586Z,6.72
2023-01-29T07:48:20.292Z,7.80
2023-01-29T07:51:24.600Z,7.40
2023-01-29T07:54:28.402Z,7.07
2023-01-29T07:58:02.152Z,7.15
2023-01-29T08:01:08.421Z,6.65
2023-01-29T08:04:20.113Z,7.15
2023-01-29T08:07:32.326Z,6.87
2023-01-29T08:10:39.111Z,8.20
2023-01-29T08:13:44.427Z,8.05
2023-01-29T08:16:57.820Z,6.97
2023-01-29T08:20:01.549Z,7.45
2023-01-29T08:23:14.652Z,6.85
2023-01-29T08:26:31.290Z,6.80
2023-01-29T08:29:42.145Z,5.85
2023-01-29T08:32:53.546Z,6.32
2023-01-29T08:36:18.186Z,6.32
2023-01-29T08:39:27.317Z,5.57
2023-01-29T08:42:38.751Z,6.43
2023-01-29T08:45:52.138Z,6.32
2023-01-29T08:48:59.501Z,6.75
2023-01-29T08:52:12.459Z,6.20
2023-01-29T08:55:20.788Z,6.62
2023-01-29T08:58:30.492Z,6.47
2023-01-29T09:01:36.812Z,5.90
2023-01-29T09:04:44.254Z,6.20
2023-01-29T09:07:52.136Z,6.50
2023-01-29T09:11:05.480Z,6.60
2023-01-29T09:14:16.251Z,5.60
2023-01-29T09:17:28.284Z,5.05
2023-01-29T09:20:40.522Z,6.35
2023-01-29T09:23:47.196Z,5.80
2023-01-29T09:26:57.767Z,6.10
2023-01-29T09:30:02.310Z,5.67
2023-01-29T09:33:14.261Z,5.62
2023-01-29T09:36:27.264Z,6.22
2023-01-29T09:39:37.798Z,6.15
2023-01-29T09:42:50.963Z,5.37
2023-01-29T09:46:15.514Z,6.03
2023-01-29T09:49:34.594Z,4.97
2023-01-29T09:53:16.073Z,5.40
2023-01-29T09:56:33.480Z,5.53
2023-01-29T09:59:40.297Z,5.10
2023-01-29T10:03:08.330Z,5.90
2023-01-29T10:06:35.550Z,5.47
2023-01-29T10:10:11.126Z,6.30
2023-01-29T10:13:35.161Z,5.75
2023-01-29T10:17:24.801Z,5.25
2023-01-29T10:21:32.263Z,6.40
2023-01-29T10:24:55.477Z,5.78
2023-01-29T10:28:05.250Z,6.10
2023-01-29T10:31:29.201Z,6.20
2023-01-29T10:34:56.521Z,6.00
2023-01-29T10:38:41.247Z,6.17
2023-01-29T10:42:18.050Z,6.32
2023-01-29T10:46:04.332Z,6.07
2023-01-29T10:49:28.652Z,6.30
2023-01-29T10:53:06.379Z,5.10
2023-01-29T10:56:25.553Z,4.73
2023-01-29T11:00:07.468Z,5.57
2023-01-29T11:03:31.406Z,5.40
2023-01-29T11:06:41.052Z,5.60
2023-01-29T11:10:00.871Z,4.97
2023-01-29T11:13:13.800Z,4.70
2023-01-29T11:16:20.563Z,4.90
2023-01-29T11:19:44.170Z,4.85
2023-01-29T11:23:07.586Z,4.50
2023-01-29T11:26:25.538Z,5.87
2023-01-29T11:30:05.189Z,6.17
2023-01-29T11:33:27.240Z,6.80
2023-01-29T11:36:42.604Z,6.03
2023-01-29T11:40:00.161Z,6.20
2023-01-29T11:43:28.248Z,5.87
2023-01-29T11:46:33.667Z,6.20
2023-01-29T11:49:40.533Z,6.12
2023-01-29T11:52:46.262Z,5.90
2023-01-29T11:55:57.402Z,6.55
2023-01-29T11:59:08.241Z,5.18
2023-01-29T12:02:28.312Z,6.10
2023-01-29T12:05:35.286Z,5.40
2023-01-29T12:08:43.239Z,6.50
2023-01-29T12:11:57.230Z,5.43
2023-01-29T12:15:14.134Z,5.47
2023-01-29T12:18:40.500Z,6.13
2023-01-29T12:21:50.152Z,6.17
2023-01-29T12:25:24.183Z,6.03
2023-01-29T12:28:39.630Z,5.90
2023-01-29T12:31:58.552Z,5.53
2023-01-29T12:35:42.282Z,5.70
2023-01-29T12:38:46.438Z,5.07
2023-01-29T12:41:57.734Z,6.18
2023-01-29T12:45:08.260Z,5.57
2023-01-29T12:48:23.180Z,4.85
2023-01-29T12:51:40.223Z,5.87
2023-01-29T12:54:56.171Z,4.85
2023-01-29T12:58:05.270Z,5.90
2023-01-29T13:01:25.182Z,4.75
2023-01-29T13:04:45.669Z,5.18
2023-01-29T13:08:10.153Z,5.20
2023-01-29T13:11:27.248Z,4.78
2023-01-29T13:14:44.319Z,5.28
2023-01-29T13:17:55.561Z,4.90
2023-01-29T13:21:07.307Z,6.57
2023-01-29T13:24:25.494Z,5.50
2023-01-29T13:27:36.098Z,5.10
2023-01-29T13:30:41.798Z,5.25
2023-01-29T13:34:00.200Z,6.07
2023-01-29T13:37:35.228Z,5.53
2023-01-29T13:40:50.853Z,5.40
2023-01-29T13:43:57.159Z,5.32
2023-01-29T13:47:11.708Z,4.53
2023-01-29T13:50:35.293Z,4.75
2023-01-29T13:53:50.071Z,5.20
2023-01-29T13:57:01.201Z,5.00
2023-01-29T14:00:12.252Z,4.80
2023-01-29T14:03:22.131Z,5.75
2023-01-29T14:06:53.693Z,5.12
2023-01-29T14:10:16.309Z,4.87
2023-01-29T14:13:32.161Z,5.70
2023-01-29T14:16:37.573Z,5.60
2023-01-29T14:19:56.806Z,5.07
2023-01-29T14:23:25.407Z,6.15
2023-01-29T14:26:44.003Z,5.43
2023-01-29T14:30:06.154Z,5.18
2023-01-29T14:33:37.187Z,5.57
2023-01-29T14:36:43.389Z,5.22
2023-01-29T14:40:13.278Z,4.55
2023-01-29T14:43:22.003Z,7.20
2023-01-29T14:46:44.788Z,5.45
2023-01-29T14:49:58.408Z,6.68
2023-01-29T14:53:31.216Z,6.30
2023-01-29T14:57:01.102Z,6.10
2023-01-29T15:00:28.604Z,6.30
2023-01-29T15:03:54.153Z,5.68
2023-01-29T15:07:20.305Z,5.53
2023-01-29T15:10:46.151Z,5.78
2023-01-29T15:14:12.085Z,6.37
2023-01-29T15:17:33.139Z,6.50
2023-01-29T15:20:40.760Z,6.57
2023-01-29T15:23:50.422Z,7.70
2023-01-29T15:26:55.374Z,7.87
2023-01-29T15:30:14.149Z,7.90
2023-01-29T15:33:19.112Z,7.15
2023-01-29T15:36:33.448Z,7.37
2023-01-29T15:39:46.148Z,7.93
2023-01-29T15:42:59.048Z,7.25
2023-01-29T15:46:16.682Z,9.52
2023-01-29T15:49:42.238Z,7.83
2023-01-29T15:53:00.399Z,7.82
2023-01-29T15:56:35.028Z,7.40
2023-01-29T15:59:44.981Z,7.47
2023-01-29T16:03:00.071Z,7.87
2023-01-29T16:06:18.381Z,8.13
2023-01-29T16:09:28.219Z,8.40
2023-01-29T16:12:35.194Z,9.00
2023-01-29T16:15:58.426Z,9.18
2023-01-29T16:19:25.214Z,9.00
2023-01-29T16:22:41.726Z,11.25
2023-01-29T16:25:57.122Z,11.05
2023-01-29T16:29:15.108Z,10.40
2023-01-29T16:32:23.138Z,10.23
2023-01-29T16:35:28.326Z,10.23
2023-01-29T16:38:47.182Z,14.25
2023-01-29T16:42:17.591Z,12.17
2023-01-29T16:45:43.057Z,9.27
2023-01-29T16:49:09.094Z,10.82
2023-01-29T16:52:27.820Z,13.93
2023-01-29T16:55:51.160Z,13.83
2023-01-29T16:58:58.217Z,12.37
2023-01-29T17:02:23.238Z,11.25
2023-01-29T17:05:39.125Z,10.52
2023-01-29T17:08:44.137Z,10.43
2023-01-29T17:12:08.026Z,10.10
2023-01-29T17:15:46.248Z,11.88
2023-01-29T17:18:58.331Z,11.68
2023-01-29T17:22:06.118Z,14.00
2023-01-29T17:25:25.124Z,13.02
2023-01-29T17:28:31.006Z,13.05
2023-01-29T17:31:43.203Z,13.60
2023-01-29T17:34:49.775Z,13.20
2023-01-29T17:37:58.190Z,14.27
2023-01-29T17:41:39.132Z,14.20
2023-01-29T17:44:45.130Z,12.25
2023-01-29T17:47:58.136Z,10.60
2023-01-29T17:51:18.131Z,8.02
2023-01-29T17:54:28.356Z,8.68
2023-01-29T17:57:38.488Z,8.55
2023-01-29T18:00:47.181Z,8.83
2023-01-29T18:03:59.309Z,9.40
2023-01-29T18:07:12.199Z,9.52
2023-01-29T18:10:23.743Z,9.07
2023-01-29T18:13:29.228Z,10.20
2023-01-29T18:16:46.553Z,9.07
2023-01-29T18:19:52.121Z,9.70
2023-01-29T18:23:11.388Z,8.80
2023-01-29T18:26:31.229Z,9.83
2023-01-29T18:29:47.165Z,9.73
2023-01-29T18:32:58.517Z,9.98
2023-01-29T18:36:06.848Z,9.43
2023-01-29T18:39:13.499Z,9.18
2023-01-29T18:42:25.027Z,9.27
2023-01-29T18:45:31.227Z,9.27
2023-01-29T18:48:42.511Z,8.27
2023-01-29T18:51:52.090Z,8.65
2023-01-29T18:55:03.346Z,8.60
2023-01-29T18:58:28.510Z,9.07
2023-01-29T19:01:34.331Z,8.80
2023-01-29T19:04:47.054Z,8.57
2023-01-29T19:07:53.083Z,9.70
2023-01-29T19:11:04.054Z,9.85
2023-01-29T19:14:15.085Z,9.70
2023-01-29T19:17:37.126Z,10.35
2023-01-29T19:20:52.067Z,9.02
2023-01-29T19:24:04.461Z,9.10
2023-01-29T19:27:09.907Z,8.63
2023-01-29T19:30:17.324Z,9.88
2023-01-29T19:33:21.796Z,10.63
2023-01-29T19:36:34.276Z,10.88
2023-01-29T19:39:38.777Z,11.90
2023-01-29T19:42:43.243Z,13.05
2023-01-29T19:45:55.419Z,12.52
2023-01-29T19:49:04.154Z,13.90
2023-01-29T19:52:49.707Z,12.15
2023-01-29T19:56:13.424Z,12.00
2023-01-29T19:59:21.543Z,11.77
2023-01-29T20:02:33.312Z,11.15
2023-01-29T20:05:56.980Z,11.12
2023-01-29T20:09:11.985Z,10.82
2023-01-29T20:12:23.210Z,10.30
2023-01-29T20:15:38.009Z,10.70
2023-01-29T20:18:53.534Z,11.55
2023-01-29T20:22:09.122Z,11.55
2023-01-29T20:25:22.109Z,11.18
2023-01-29T20:28:35.080Z,11.48
2023-01-29T20:31:38.913Z,11.85
2023-01-29T20:34:47.443Z,13.60
2023-01-29T20:37:56.121Z,11.23
2023-01-29T20:41:21.069Z,11.90
2023-01-29T20:44:28.088Z,11.25
2023-01-29T20:47:39.371Z,10.60
2023-01-29T20:50:44.115Z,10.55
2023-01-29T20:53:51.170Z,10.40
2023-01-29T20:57:12.231Z,11.07
2023-01-29T21:00:22.121Z,11.15
2023-01-29T21:03:29.630Z,10.55
2023-01-29T21:06:36.591Z,11.40
2023-01-29T21:09:48.057Z,10.90
2023-01-29T21:13:01.335Z,10.65
2023-01-29T21:16:11.044Z,11.18
2023-01-29T21:19:21.814Z,10.13
2023-01-29T21:22:26.989Z,11.10
2023-01-29T21:25:40.244Z,10.45
2023-01-29T21:28:53.233Z,10.38
2023-01-29T21:31:55.953Z,11.20
2023-01-29T21:35:00.093Z,10.38
2023-01-29T21:38:06.065Z,10.00
2023-01-29T21:41:12.256Z,11.10
2023-01-29T21:44:17.073Z,8.87
2023-01-29T21:47:24.090Z,10.00
2023-01-29T21:50:34.985Z,9.38
2023-01-29T21:53:40.063Z,10.47
2023-01-29T21:56:51.804Z,11.12
2023-01-29T21:59:56.128Z,11.20
2023-01-29T22:03:01.540Z,11.93
2023-01-29T22:06:07.129Z,12.57
2023-01-29T22:09:11.260Z,12.32
2023-01-29T22:12:14.502Z,11.15
2023-01-29T22:15:17.468Z,12.07
2023-01-29T22:18:21.850Z,12.02
2023-01-29T22:21:24.828Z,11.85
2023-01-29T22:24:28.657Z,12.33
2023-01-29T22:27:34.056Z,12.37
2023-01-29T22:30:39.192Z,11.55
2023-01-29T22:33:44.069Z,15.35
2023-01-29T22:36:47.601Z,39.40
2023-01-29T22:39:53.620Z,28.60
2023-01-29T22:42:57.543Z,21.35
2023-01-29T22:46:00.468Z,14.77
2023-01-29T22:49:04.556Z,12.85
2023-01-29T22:52:10.552Z,13.98
2023-01-29T22:55:14.101Z,13.68
2023-01-29T22:58:18.085Z,13.43
2023-01-29T23:01:24.287Z,13.57
2023-01-29T23:04:27.425Z,13.48
2023-01-29T23:07:31.103Z,14.73
2023-01-29T23:10:34.586Z,14.20
2023-01-29T23:13:38.115Z,14.05
2023-01-29T23:16:42.445Z,14.73
2023-01-29T23:19:48.035Z,15.02
2023-01-29T23:22:51.938Z,14.70
2023-01-29T23:26:19.004Z,13.90
2023-01-29T23:29:23.127Z,14.75
2023-01-29T23:32:32.958Z,15.52
2023-01-29T23:35:35.957Z,14.82
2023-01-29T23:38:40.347Z,14.53
2023-01-29T23:41:43.646Z,13.82
2023-01-29T23:44:48.125Z,13.45
2023-01-29T23:47:50.655Z,12.60
2023-01-29T23:50:53.820Z,13.35
2023-01-29T23:53:56.742Z,12.32
2023-01-29T23:56:59.857Z,12.93
